Time;durP1;ratioP1;P1;durP2;ratioP2;P2;SDS_P1;SDS_P2;PMS_P1;PMS_P2;Temp;Humidity;BMP_temperature;BMP_pressure;BME280_temperature;BME280_humidity;BME280_pressure;Samples;Min_cycle;Max_cycle;Signal;HPM_P1;HPM_P2
2023/09/24 00:00:20;;;;;;;8.63;7.97;;;13.40;99.90;;;;;;5055219;28;20525;-72
2023/09/24 00:02:52;;;;;;;7.97;7.37;;;13.40;99.90;;;;;;5053697;28;20815;-71
2023/09/24 00:05:20;;;;;;;8.00;6.93;;;13.40;99.90;;;;;;5054914;28;20484;-71
2023/09/24 00:07:49;;;;;;;8.80;8.00;;;13.40;99.90;;;;;;5053427;28;20472;-71
2023/09/24 00:10:17;;;;;;;12.00;11.00;;;13.40;99.90;;;;;;5053573;28;21032;-71
2023/09/24 00:12:45;;;;;;;10.93;9.93;;;13.40;99.90;;;;;;5054794;28;20508;-71
2023/09/24 00:15:14;;;;;;;8.17;7.40;;;13.40;99.90;;;;;;5055054;28;20554;-72
2023/09/24 00:17:42;;;;;;;6.87;6.27;;;13.40;99.90;;;;;;5054662;28;20441;-72
2023/09/24 00:20:15;;;;;;;5.80;5.30;;;13.30;99.90;;;;;;5054623;28;20433;-71
2023/09/24 00:22:43;;;;;;;6.33;5.73;;;13.30;99.90;;;;;;5054861;28;20431;-71
2023/09/24 00:25:11;;;;;;;6.10;5.50;;;13.30;99.90;;;;;;5054806;28;20454;-72
2023/09/24 00:27:39;;;;;;;5.87;5.27;;;13.30;99.90;;;;;;5054417;28;20470;-72
2023/09/24 00:30:09;;;;;;;6.50;6.00;;;13.30;99.90;;;;;;5053205;28;20468;-72
2023/09/24 00:32:38;;;;;;;6.00;5.37;;;13.30;99.90;;;;;;5054434;28;20971;-72
2023/09/24 00:35:08;;;;;;;6.17;5.23;;;13.30;99.90;;;;;;5053195;28;20844;-72
2023/09/24 00:37:37;;;;;;;5.33;4.83;;;13.30;99.90;;;;;;5053190;28;20484;-72
2023/09/24 00:40:10;;;;;;;5.53;5.03;;;13.20;99.90;;;;;;5053058;28;20446;-72
2023/09/24 00:42:38;;;;;;;7.07;5.37;;;13.30;99.90;;;;;;5013905;28;1115887;-72
2023/09/24 00:45:11;;;;;;;6.37;5.73;;;13.20;99.90;;;;;;5054308;28;21051;-71
2023/09/24 00:47:44;;;;;;;5.97;4.80;;;13.20;99.90;;;;;;5055818;28;20504;-71
2023/09/24 00:50:13;;;;;;;6.23;5.70;;;13.20;99.90;;;;;;5054034;28;20525;-72
2023/09/24 00:52:45;;;;;;;6.37;5.87;;;13.20;99.90;;;;;;5055198;28;20521;-72
2023/09/24 00:55:14;;;;;;;5.63;5.03;;;13.20;99.90;;;;;;5055635;28;20796;-72
2023/09/24 00:57:44;;;;;;;6.20;5.70;;;13.10;99.90;;;;;;5053845;28;20443;-72
2023/09/24 01:00:16;;;;;;;7.10;6.50;;;13.10;99.90;;;;;;5053888;28;20860;-72
2023/09/24 01:02:46;;;;;;;6.73;6.13;;;13.10;99.90;;;;;;5054996;28;20431;-72
2023/09/24 01:05:15;;;;;;;6.43;5.83;;;13.10;99.90;;;;;;5053904;28;20807;-72
2023/09/24 01:07:44;;;;;;;6.20;5.70;;;13.10;99.90;;;;;;5055205;28;20470;-72
2023/09/24 01:10:14;;;;;;;6.00;5.50;;;13.10;99.90;;;;;;5053828;28;20442;-71
2023/09/24 01:12:54;;;;;;;6.57;5.70;;;13.00;99.90;;;;;;5053648;28;20941;-71
2023/09/24 01:15:24;;;;;;;9.50;5.50;;;13.00;99.90;;;;;;5053594;28;20872;-72
2023/09/24 01:17:53;;;;;;;6.10;5.60;;;13.00;99.90;;;;;;5053587;28;20450;-72
2023/09/24 01:20:22;;;;;;;6.03;5.53;;;13.00;99.90;;;;;;5053878;28;20814;-72
2023/09/24 01:22:53;;;;;;;7.07;5.97;;;13.00;99.90;;;;;;5053459;28;20449;-72
2023/09/24 01:25:21;;;;;;;6.60;6.10;;;12.90;99.90;;;;;;5054616;28;20940;-72
2023/09/24 01:27:50;;;;;;;6.40;5.90;;;12.90;99.90;;;;;;5054818;28;20527;-72
2023/09/24 01:30:18;;;;;;;6.50;5.93;;;12.90;99.90;;;;;;5053343;28;20450;-72
2023/09/24 01:32:50;;;;;;;6.00;5.60;;;12.90;99.90;;;;;;5054515;28;20438;-72
2023/09/24 01:35:25;;;;;;;6.40;5.80;;;12.90;99.90;;;;;;5053461;28;20461;-71
2023/09/24 01:37:58;;;;;;;7.00;6.30;;;12.90;99.90;;;;;;5057754;28;20860;-72
2023/09/24 01:40:32;;;;;;;6.20;5.70;;;12.80;99.90;;;;;;5055180;28;20480;-72
2023/09/24 01:43:02;;;;;;;7.10;6.60;;;12.80;99.90;;;;;;5055524;28;20456;-72
2023/09/24 01:45:33;;;;;;;6.73;6.20;;;12.80;99.90;;;;;;5053896;28;20508;-71
2023/09/24 01:48:02;;;;;;;8.30;6.00;;;12.80;99.90;;;;;;5055017;28;20458;-71
2023/09/24 01:50:33;;;;;;;6.70;6.10;;;12.80;99.90;;;;;;5052455;28;20522;-71
2023/09/24 01:53:04;;;;;;;6.63;6.10;;;12.70;99.90;;;;;;5054576;28;20605;-71
2023/09/24 01:55:33;;;;;;;6.63;6.13;;;12.70;99.90;;;;;;5054110;28;20464;-72
2023/09/24 01:58:01;;;;;;;6.87;6.27;;;12.70;99.90;;;;;;5053068;28;20481;-72
2023/09/24 02:00:29;;;;;;;6.77;6.03;;;12.70;99.90;;;;;;5052772;28;20481;-71
2023/09/24 02:03:00;;;;;;;6.53;6.03;;;12.60;99.90;;;;;;5052998;28;20860;-71
2023/09/24 02:05:32;;;;;;;6.33;5.83;;;12.60;99.90;;;;;;5053940;28;20545;-71
2023/09/24 02:08:05;;;;;;;6.63;6.03;;;12.60;99.90;;;;;;5053903;28;20477;-72
2023/09/24 02:10:35;;;;;;;7.70;7.10;;;12.60;99.90;;;;;;5052675;28;20870;-71
2023/09/24 02:13:04;;;;;;;7.63;6.97;;;12.50;99.90;;;;;;5052845;28;20430;-71
2023/09/24 02:15:33;;;;;;;7.20;6.50;;;12.50;99.90;;;;;;5052381;28;20466;-72
2023/09/24 02:18:04;;;;;;;6.87;6.27;;;12.50;99.90;;;;;;5053908;28;20517;-71
2023/09/24 02:20:33;;;;;;;9.07;6.97;;;12.50;99.90;;;;;;5052362;28;20442;-71
2023/09/24 02:23:02;;;;;;;5.97;5.50;;;12.50;99.90;;;;;;5053767;28;20908;-72
2023/09/24 02:25:32;;;;;;;7.07;6.47;;;12.40;99.90;;;;;;5052273;28;20470;-71
2023/09/24 02:28:02;;;;;;;6.90;6.30;;;12.40;99.90;;;;;;5052290;28;20504;-71
2023/09/24 02:30:31;;;;;;;8.53;6.47;;;12.40;99.90;;;;;;5052210;28;20446;-71
2023/09/24 02:33:02;;;;;;;7.47;6.77;;;12.40;99.90;;;;;;5052273;28;20434;-71
2023/09/24 02:35:31;;;;;;;8.10;7.40;;;12.40;99.90;;;;;;5052064;28;20462;-71
2023/09/24 02:38:00;;;;;;;7.67;7.07;;;12.40;99.90;;;;;;5053374;28;20435;-72
2023/09/24 02:40:28;;;;;;;8.70;7.33;;;12.30;99.90;;;;;;5053322;28;20437;-72
2023/09/24 02:42:58;;;;;;;9.20;8.37;;;12.40;99.90;;;;;;5052013;28;20446;-72
2023/09/24 02:45:29;;;;;;;9.47;8.60;;;12.30;99.90;;;;;;5053219;28;20541;-71
2023/09/24 02:47:57;;;;;;;11.47;10.30;;;12.30;99.90;;;;;;5052094;28;20872;-71
2023/09/24 02:50:28;;;;;;;10.93;9.83;;;12.30;99.90;;;;;;5052169;28;20438;-72
2023/09/24 02:52:58;;;;;;;11.13;10.13;;;12.30;99.90;;;;;;5052023;28;20473;-72
2023/09/24 02:55:29;;;;;;;11.10;10.00;;;12.30;99.90;;;;;;5052173;28;20473;-71
2023/09/24 02:57:57;;;;;;;12.73;11.40;;;12.30;99.90;;;;;;5051858;28;20446;-72
2023/09/24 03:00:34;;;;;;;14.73;12.63;;;12.20;99.90;;;;;;5053306;28;20434;-71
2023/09/24 03:03:05;;;;;;;13.90;12.37;;;12.20;99.90;;;;;;5051159;28;20509;-71
2023/09/24 03:05:34;;;;;;;13.60;12.10;;;12.20;99.90;;;;;;5051772;28;20458;-71
2023/09/24 03:08:04;;;;;;;14.20;11.93;;;12.20;99.90;;;;;;5051967;28;20810;-71
2023/09/24 03:10:33;;;;;;;13.87;12.37;;;12.20;99.90;;;;;;5051906;28;20545;-71
2023/09/24 03:13:04;;;;;;;13.23;11.80;;;12.10;99.90;;;;;;5051707;28;20905;-71
2023/09/24 03:15:33;;;;;;;12.20;11.00;;;12.10;99.90;;;;;;5052999;28;20472;-71
2023/09/24 03:18:02;;;;;;;12.33;11.13;;;12.10;99.90;;;;;;5053067;28;20430;-71
2023/09/24 03:20:31;;;;;;;11.63;10.43;;;12.10;99.90;;;;;;5051664;28;20956;-71
2023/09/24 03:23:08;;;;;;;12.37;11.10;;;12.10;99.90;;;;;;5051658;28;20442;-71
2023/09/24 03:25:37;;;;;;;11.60;10.50;;;12.00;99.90;;;;;;5051790;28;20976;-71
2023/09/24 03:28:05;;;;;;;12.23;11.10;;;12.00;99.90;;;;;;5051793;28;20558;-71
2023/09/24 03:30:35;;;;;;;11.50;10.40;;;12.00;99.90;;;;;;5053456;28;20438;-71
2023/09/24 03:33:04;;;;;;;12.17;11.07;;;11.90;99.90;;;;;;5051669;28;20446;-71
2023/09/24 03:35:32;;;;;;;11.70;10.50;;;11.90;99.90;;;;;;5051582;28;20485;-71
2023/09/24 03:38:00;;;;;;;12.10;11.00;;;11.90;99.90;;;;;;5051572;28;20442;-71
2023/09/24 03:40:29;;;;;;;12.13;10.50;;;11.90;99.90;;;;;;5052879;28;20442;-71
2023/09/24 03:42:59;;;;;;;9.87;8.90;;;11.90;99.90;;;;;;5053086;28;20454;-72
2023/09/24 03:45:27;;;;;;;9.67;8.77;;;11.80;99.90;;;;;;5051778;28;20516;-71
2023/09/24 03:47:58;;;;;;;9.57;8.77;;;11.80;99.90;;;;;;5051357;28;20458;-71
2023/09/24 03:50:27;;;;;;;9.67;8.87;;;11.80;99.90;;;;;;5051713;28;20808;-71
2023/09/24 03:52:56;;;;;;;9.60;8.70;;;11.80;99.90;;;;;;5052923;28;20438;-71
2023/09/24 03:55:24;;;;;;;11.30;8.97;;;11.80;99.90;;;;;;5052565;28;20552;-71
2023/09/24 03:57:52;;;;;;;8.97;8.17;;;11.70;99.90;;;;;;5051410;28;20446;-71
2023/09/24 04:00:21;;;;;;;10.10;8.37;;;11.70;99.90;;;;;;5052864;28;20429;-71
2023/09/24 04:02:51;;;;;;;8.93;8.13;;;11.70;99.90;;;;;;5052829;28;20450;-72
2023/09/24 04:05:23;;;;;;;8.70;7.90;;;11.70;99.90;;;;;;5051199;28;21004;-72
2023/09/24 04:07:54;;;;;;;8.30;7.47;;;11.70;99.90;;;;;;5052533;28;20422;-71
2023/09/24 04:10:27;;;;;;;9.10;8.20;;;11.80;99.90;;;;;;5051231;28;20438;-71
2023/09/24 04:12:57;;;;;;;10.60;7.60;;;11.80;99.90;;;;;;5051149;28;20979;-71
2023/09/24 04:15:28;;;;;;;8.43;7.63;;;11.70;99.90;;;;;;5054621;28;21046;-71
2023/09/24 04:17:57;;;;;;;9.40;8.50;;;11.70;99.90;;;;;;5055086;28;20828;-71
2023/09/24 04:20:29;;;;;;;8.70;8.00;;;11.70;99.90;;;;;;5056296;28;20456;-72
2023/09/24 04:22:57;;;;;;;9.83;8.83;;;11.70;99.90;;;;;;5054930;28;20434;-71
2023/09/24 04:25:26;;;;;;;9.87;8.97;;;11.70;99.90;;;;;;5056227;28;20449;-71
2023/09/24 04:27:55;;;;;;;9.27;8.47;;;11.70;99.90;;;;;;5055804;28;20446;-71
2023/09/24 04:30:24;;;;;;;9.43;8.53;;;11.70;99.90;;;;;;5055922;28;21038;-71
2023/09/24 04:32:57;;;;;;;8.73;7.93;;;11.80;99.90;;;;;;5054634;28;20467;-71
2023/09/24 04:35:27;;;;;;;9.63;8.57;;;11.80;99.90;;;;;;5055896;28;20818;-72
2023/09/24 04:37:56;;;;;;;9.60;8.60;;;11.80;99.90;;;;;;5055690;28;20472;-71
2023/09/24 04:40:26;;;;;;;9.30;8.40;;;11.80;99.90;;;;;;5055840;28;20434;-71
2023/09/24 04:42:54;;;;;;;10.37;9.33;;;11.80;99.90;;;;;;5055941;28;20472;-72
2023/09/24 04:45:23;;;;;;;10.87;9.60;;;11.80;99.90;;;;;;5055539;28;20461;-71
2023/09/24 04:47:51;;;;;;;8.90;8.00;;;11.80;99.90;;;;;;5055708;28;20437;-71
2023/09/24 04:50:19;;;;;;;11.90;9.13;;;11.80;99.90;;;;;;5054043;28;20466;-71
2023/09/24 04:52:50;;;;;;;10.80;9.80;;;11.80;99.90;;;;;;5056792;28;20529;-72
2023/09/24 04:55:19;;;;;;;9.70;8.80;;;11.80;99.90;;;;;;5057609;28;20477;-71
2023/09/24 04:57:47;;;;;;;11.90;9.43;;;11.90;99.90;;;;;;5056921;28;20438;-71
2023/09/24 05:00:16;;;;;;;10.33;9.40;;;11.90;99.90;;;;;;5054446;28;20479;-71
2023/09/24 05:02:47;;;;;;;19.30;9.80;;;11.90;99.90;;;;;;5055423;28;20936;-71
2023/09/24 05:05:16;;;;;;;10.70;8.73;;;11.90;99.90;;;;;;5055223;28;20523;-71
2023/09/24 05:07:44;;;;;;;12.57;9.10;;;11.90;99.90;;;;;;5055665;28;20462;-71
2023/09/24 05:10:14;;;;;;;12.77;9.27;;;11.90;99.90;;;;;;5055224;28;20989;-71
2023/09/24 05:12:42;;;;;;;10.03;9.13;;;11.90;99.90;;;;;;5055484;28;20834;-71
2023/09/24 05:15:11;;;;;;;10.37;9.40;;;11.90;99.90;;;;;;5055302;28;20454;-71
2023/09/24 05:17:39;;;;;;;11.13;10.03;;;11.90;99.90;;;;;;5054967;28;20859;-71
2023/09/24 05:20:09;;;;;;;15.00;10.40;;;11.90;99.90;;;;;;5054924;28;20993;-71
2023/09/24 05:22:39;;;;;;;10.57;9.57;;;11.90;99.90;;;;;;5059697;28;20437;-71
2023/09/24 05:25:08;;;;;;;10.73;9.63;;;12.00;99.90;;;;;;5056594;28;20477;-71
2023/09/24 05:27:37;;;;;;;11.27;10.17;;;11.90;99.90;;;;;;5055938;28;20442;-71
2023/09/24 05:30:07;;;;;;;11.80;10.63;;;12.00;99.90;;;;;;5057649;28;20470;-71
2023/09/24 05:32:36;;;;;;;15.33;9.77;;;12.00;99.90;;;;;;5058241;28;20419;-71
2023/09/24 05:35:05;;;;;;;11.20;9.40;;;12.00;99.90;;;;;;5055649;28;20476;-71
2023/09/24 05:37:33;;;;;;;9.00;8.10;;;12.00;99.90;;;;;;5056215;28;20925;-71
2023/09/24 05:40:03;;;;;;;10.80;9.70;;;12.00;99.90;;;;;;5053973;28;20492;-71
2023/09/24 05:42:31;;;;;;;15.07;10.00;;;12.00;99.90;;;;;;5055666;28;21015;-71
2023/09/24 05:45:00;;;;;;;13.77;10.00;;;12.00;99.90;;;;;;5054752;28;20568;-71
2023/09/24 05:47:30;;;;;;;13.60;10.03;;;12.00;99.90;;;;;;5054989;28;20445;-71
2023/09/24 05:49:58;;;;;;;10.63;9.07;;;12.00;99.90;;;;;;5055335;28;20470;-71
2023/09/24 05:52:27;;;;;;;12.20;10.97;;;12.00;99.90;;;;;;5055174;28;20450;-71
2023/09/24 05:54:55;;;;;;;11.13;10.03;;;12.00;99.90;;;;;;5054547;28;20464;-71
2023/09/24 05:57:26;;;;;;;11.40;10.30;;;12.00;99.90;;;;;;5053115;28;20450;-71
2023/09/24 05:59:54;;;;;;;11.37;10.13;;;12.00;99.90;;;;;;5054245;28;20472;-71
2023/09/24 06:02:25;;;;;;;11.23;10.13;;;12.00;99.90;;;;;;5054436;28;20919;-71
2023/09/24 06:04:54;;;;;;;11.73;10.57;;;12.00;99.90;;;;;;5054100;28;20462;-71
2023/09/24 06:07:24;;;;;;;13.00;10.87;;;12.10;99.90;;;;;;5052878;28;20492;-71
2023/09/24 06:09:53;;;;;;;13.33;10.43;;;12.10;99.90;;;;;;5052883;28;20470;-71
2023/09/24 06:12:22;;;;;;;12.30;11.00;;;12.10;99.90;;;;;;5053969;28;20446;-71
2023/09/24 06:14:50;;;;;;;12.87;11.20;;;12.10;99.90;;;;;;5052509;28;20992;-71
2023/09/24 06:17:18;;;;;;;12.93;11.17;;;12.20;99.90;;;;;;5053972;28;20438;-71
2023/09/24 06:19:48;;;;;;;14.47;12.97;;;12.20;99.90;;;;;;5052650;28;20440;-71
2023/09/24 06:22:16;;;;;;;15.10;12.30;;;12.20;99.90;;;;;;5052483;28;20532;-71
2023/09/24 06:24:44;;;;;;;13.10;11.70;;;12.20;99.90;;;;;;5053836;28;20460;-71
2023/09/24 06:27:14;;;;;;;13.57;11.93;;;12.20;99.90;;;;;;5053883;28;20476;-71
2023/09/24 06:29:42;;;;;;;12.93;11.47;;;12.20;99.90;;;;;;5053473;28;20474;-71
2023/09/24 06:32:10;;;;;;;15.13;12.60;;;12.30;99.90;;;;;;5053610;28;20905;-71
2023/09/24 06:34:38;;;;;;;13.73;12.33;;;12.30;99.90;;;;;;5052509;28;20512;-71
2023/09/24 06:37:08;;;;;;;15.60;12.30;;;12.30;99.90;;;;;;5053215;28;20464;-71
2023/09/24 06:39:36;;;;;;;15.23;13.63;;;12.30;99.90;;;;;;5052162;28;21011;-71
2023/09/24 06:42:04;;;;;;;16.43;14.30;;;12.40;99.90;;;;;;5052081;28;20972;-71
2023/09/24 06:44:33;;;;;;;16.33;13.60;;;12.40;99.90;;;;;;5053581;28;20565;-71
2023/09/24 06:47:01;;;;;;;17.27;14.27;;;12.40;99.90;;;;;;5053377;28;20804;-71
2023/09/24 06:49:29;;;;;;;19.13;15.63;;;12.50;99.90;;;;;;5052163;28;20448;-71
2023/09/24 06:51:58;;;;;;;17.80;14.83;;;12.50;99.90;;;;;;5053692;28;20437;-71
2023/09/24 06:54:27;;;;;;;16.60;13.97;;;12.50;99.90;;;;;;5051891;28;21014;-71
2023/09/24 06:56:55;;;;;;;17.73;15.20;;;12.60;99.90;;;;;;5053426;28;20434;-71
2023/09/24 06:59:23;;;;;;;23.17;18.20;;;12.60;99.90;;;;;;5054760;28;20434;-75
2023/09/24 07:01:52;;;;;;;18.23;14.20;;;12.60;99.90;;;;;;5057051;28;20465;-75
2023/09/24 07:04:20;;;;;;;24.73;17.63;;;12.70;99.90;;;;;;5055917;28;20545;-74
2023/09/24 07:06:48;;;;;;;27.70;18.40;;;12.70;99.90;;;;;;5057406;28;20520;-74
2023/09/24 07:09:17;;;;;;;21.37;15.70;;;12.80;99.90;;;;;;5056380;28;20442;-74
2023/09/24 07:11:46;;;;;;;24.60;18.30;;;12.80;99.90;;;;;;5056136;28;20474;-74
2023/09/24 07:14:15;;;;;;;26.10;17.87;;;12.80;99.90;;;;;;5056536;28;20890;-74
2023/09/24 07:16:43;;;;;;;22.70;16.50;;;12.90;99.90;;;;;;5056640;28;20438;-74
2023/09/24 07:19:15;;;;;;;31.43;20.27;;;12.90;99.90;;;;;;5054797;28;20480;-75
2023/09/24 07:21:43;;;;;;;25.13;18.07;;;12.90;99.90;;;;;;5057753;28;20532;-74
2023/09/24 07:24:11;;;;;;;23.80;17.97;;;13.00;99.90;;;;;;5056716;28;21000;-74
2023/09/24 07:26:39;;;;;;;26.83;18.27;;;13.00;99.90;;;;;;5057317;28;20945;-74
2023/09/24 07:29:09;;;;;;;24.23;17.63;;;13.10;99.90;;;;;;5056517;28;20956;-74
2023/09/24 07:31:37;;;;;;;27.00;18.50;;;13.10;99.90;;;;;;5057352;28;20473;-74
2023/09/24 07:34:07;;;;;;;24.17;17.93;;;13.20;99.90;;;;;;5057203;28;20500;-74
2023/09/24 07:36:36;;;;;;;27.33;18.73;;;13.20;99.90;;;;;;5056085;28;20438;-75
2023/09/24 07:39:24;;;;;;;26.23;18.80;;;13.20;99.90;;;;;;5056641;28;20456;-74
2023/09/24 07:41:52;;;;;;;26.57;18.10;;;13.30;99.90;;;;;;5057075;28;20529;-74
2023/09/24 07:44:22;;;;;;;25.77;18.10;;;13.30;99.90;;;;;;5055995;28;20474;-74
2023/09/24 07:46:50;;;;;;;23.13;17.20;;;13.40;99.90;;;;;;5057347;28;20466;-74
2023/09/24 07:49:18;;;;;;;23.87;16.70;;;13.40;99.90;;;;;;5058230;28;20441;-74
2023/09/24 07:51:46;;;;;;;23.43;17.80;;;13.40;99.90;;;;;;5059742;28;20980;-75
2023/09/24 07:54:14;;;;;;;23.73;18.07;;;13.50;99.90;;;;;;5060424;28;20458;-74
2023/09/24 07:56:43;;;;;;;25.47;18.53;;;13.50;99.90;;;;;;5060200;28;20445;-74
2023/09/24 07:59:11;;;;;;;23.30;17.10;;;13.50;99.90;;;;;;5060269;28;20449;-74
2023/09/24 08:01:41;;;;;;;22.83;18.60;;;13.50;99.90;;;;;;5060486;28;20441;-74
2023/09/24 08:04:09;;;;;;;22.10;18.70;;;13.60;99.90;;;;;;5060474;28;20460;-75
2023/09/24 08:06:38;;;;;;;36.50;28.90;;;13.70;99.90;;;;;;5060932;28;20438;-75
2023/09/24 08:09:06;;;;;;;23.23;17.90;;;13.60;99.90;;;;;;5066615;28;20442;-75
2023/09/24 08:11:53;;;;;;;21.03;16.97;;;13.70;99.90;;;;;;5063825;28;20458;-74
2023/09/24 08:14:22;;;;;;;20.87;15.63;;;13.80;99.90;;;;;;5062122;28;20469;-75
2023/09/24 08:16:51;;;;;;;20.53;16.37;;;13.80;99.90;;;;;;5059933;28;20785;-74
2023/09/24 08:19:20;;;;;;;22.10;17.83;;;13.90;99.90;;;;;;5059641;28;20430;-74
2023/09/24 08:21:48;;;;;;;22.23;17.13;;;13.90;99.90;;;;;;5059998;28;20442;-75
2023/09/24 08:24:16;;;;;;;19.70;17.03;;;14.00;99.90;;;;;;5059788;28;20476;-74
2023/09/24 08:26:44;;;;;;;21.20;16.80;;;14.00;99.90;;;;;;5056560;28;20442;-71
2023/09/24 08:29:12;;;;;;;20.23;16.77;;;14.10;99.90;;;;;;5056501;28;20434;-71
2023/09/24 08:31:40;;;;;;;20.73;16.20;;;14.10;99.90;;;;;;5056498;28;20501;-72
2023/09/24 08:34:10;;;;;;;20.03;16.83;;;14.20;99.90;;;;;;5056100;28;20826;-70
2023/09/24 08:36:39;;;;;;;21.83;19.03;;;14.20;99.90;;;;;;5054698;28;20478;-71
2023/09/24 08:39:08;;;;;;;21.20;18.90;;;14.20;99.90;;;;;;5055136;28;20454;-70
2023/09/24 08:41:43;;;;;;;23.40;20.20;;;14.30;99.90;;;;;;5056279;28;20850;-70
2023/09/24 08:44:17;;;;;;;20.03;17.53;;;14.30;99.90;;;;;;5055077;28;20491;-71
2023/09/24 08:46:50;;;;;;;27.07;21.90;;;14.40;99.90;;;;;;5055001;28;20473;-71
2023/09/24 08:49:21;;;;;;;21.93;19.53;;;14.40;99.90;;;;;;5056479;28;20446;-71
2023/09/24 08:51:50;;;;;;;20.73;18.43;;;14.50;99.90;;;;;;5056243;28;20552;-71
2023/09/24 08:54:18;;;;;;;21.67;19.57;;;14.50;99.90;;;;;;5055541;28;20478;-71
2023/09/24 08:56:46;;;;;;;21.53;19.30;;;14.50;99.90;;;;;;5055871;28;20456;-71
2023/09/24 08:59:14;;;;;;;19.77;17.30;;;14.60;99.90;;;;;;5054153;28;20449;-71
2023/09/24 09:01:51;;;;;;;18.83;16.83;;;14.70;99.90;;;;;;5054207;28;20450;-71
2023/09/24 09:04:21;;;;;;;19.73;17.40;;;14.70;99.90;;;;;;5054130;28;20462;-71
2023/09/24 09:06:49;;;;;;;19.50;17.60;;;14.80;99.90;;;;;;5054536;28;20538;-70
2023/09/24 09:09:24;;;;;;;19.73;16.33;;;14.80;99.90;;;;;;5055081;28;21043;-72
2023/09/24 09:11:53;;;;;;;17.63;15.60;;;14.90;99.90;;;;;;5056145;28;20457;-71
2023/09/24 09:14:34;;;;;;;16.60;14.80;;;15.00;99.90;;;;;;5054838;28;21054;-72
2023/09/24 09:17:03;;;;;;;16.50;14.87;;;15.00;99.90;;;;;;5056271;28;20430;-72
2023/09/24 09:19:51;;;;;;;18.43;14.37;;;15.10;99.90;;;;;;5054893;28;20517;-71
2023/09/24 09:22:21;;;;;;;15.63;14.03;;;15.10;99.90;;;;;;5056544;28;20421;-71
2023/09/24 09:25:01;;;;;;;16.27;12.63;;;15.20;99.90;;;;;;5055706;28;20454;-71
2023/09/24 09:27:32;;;;;;;15.13;13.73;;;15.30;99.90;;;;;;5054507;28;20477;-71
2023/09/24 09:30:15;;;;;;;14.23;12.73;;;15.40;99.90;;;;;;5056170;28;20422;-71
2023/09/24 09:32:44;;;;;;;15.70;14.20;;;15.50;99.90;;;;;;5056199;28;20428;-72
2023/09/24 09:35:15;;;;;;;14.30;12.80;;;15.40;99.90;;;;;;5055785;28;20504;-71
2023/09/24 09:37:44;;;;;;;14.10;12.60;;;15.50;99.90;;;;;;5055657;28;20426;-72
2023/09/24 09:40:14;;;;;;;12.73;11.23;;;15.60;99.90;;;;;;5054302;28;20446;-71
2023/09/24 09:42:43;;;;;;;12.20;11.00;;;15.70;99.90;;;;;;5055521;28;20465;-72
2023/09/24 09:45:12;;;;;;;12.40;9.63;;;15.80;99.90;;;;;;5054368;28;20551;-72
2023/09/24 09:47:58;;;;;;;13.40;12.00;;;15.80;99.90;;;;;;5055745;28;20851;-72
2023/09/24 09:50:30;;;;;;;10.90;9.57;;;15.90;99.90;;;;;;5055802;28;20448;-72
2023/09/24 09:53:02;;;;;;;10.33;9.33;;;15.90;99.90;;;;;;5055316;28;20981;-73
2023/09/24 09:55:31;;;;;;;11.10;9.63;;;16.00;99.90;;;;;;5055538;28;20549;-75
2023/09/24 09:58:01;;;;;;;10.03;8.20;;;16.00;99.90;;;;;;5054959;28;20804;-72
2023/09/24 10:00:49;;;;;;;10.33;9.23;;;16.10;99.90;;;;;;5055372;28;20409;-71
2023/09/24 10:03:18;;;;;;;11.60;9.30;;;16.20;99.90;;;;;;5053942;28;20525;-72
2023/09/24 10:05:49;;;;;;;10.37;8.63;;;16.20;99.90;;;;;;5053867;28;20804;-72
2023/09/24 10:08:42;;;;;;;8.60;7.77;;;16.40;99.90;;;;;;5053734;28;20439;-72
2023/09/24 10:11:56;;;;;;;8.23;7.40;;;16.40;99.90;;;;;;5054430;28;20444;-73
2023/09/24 10:14:33;;;;;;;8.37;7.50;;;16.50;99.90;;;;;;5053565;28;20462;-73
2023/09/24 10:17:21;;;;;;;6.77;6.17;;;16.60;99.90;;;;;;5053632;28;20421;-73
2023/09/24 10:19:51;;;;;;;6.00;5.40;;;16.60;99.90;;;;;;5054854;28;20520;-73
2023/09/24 10:22:32;;;;;;;7.33;5.53;;;16.70;99.90;;;;;;5054939;28;20396;-72
2023/09/24 10:25:02;;;;;;;7.53;4.70;;;16.70;99.90;;;;;;5053936;28;20432;-73
2023/09/24 10:27:34;;;;;;;7.87;7.07;;;16.80;99.90;;;;;;5053668;28;20830;-73
2023/09/24 10:30:06;;;;;;;5.80;5.30;;;16.80;99.90;;;;;;5052583;28;20427;-73
2023/09/24 10:32:50;;;;;;;5.63;4.57;;;16.90;99.90;;;;;;5053725;28;20460;-73
2023/09/24 10:35:20;;;;;;;6.23;5.40;;;16.90;99.90;;;;;;5052544;28;20432;-69
2023/09/24 10:38:03;;;;;;;6.10;4.80;;;16.90;99.90;;;;;;5052885;28;20424;-72
2023/09/24 10:40:34;;;;;;;8.53;5.20;;;17.00;99.90;;;;;;5052678;28;20478;-72
2023/09/24 10:43:23;;;;;;;5.97;5.00;;;17.10;99.90;;;;;;5053566;28;20428;-72
2023/09/24 10:45:51;;;;;;;5.03;3.83;;;17.10;99.90;;;;;;5046629;28;20492;-72
2023/09/24 10:48:21;;;;;;;7.70;5.90;;;17.20;99.90;;;;;;5053872;28;20457;-72
2023/09/24 10:51:10;;;;;;;4.90;4.43;;;17.20;99.90;;;;;;5053641;28;20876;-72
2023/09/24 10:53:39;;;;;;;5.23;4.00;;;17.30;99.90;;;;;;5053215;28;20444;-72
2023/09/24 10:56:10;;;;;;;7.00;4.20;;;17.40;99.90;;;;;;5052143;28;20420;-72
2023/09/24 10:58:39;;;;;;;4.90;4.30;;;17.40;99.90;;;;;;5053784;28;20425;-72
2023/09/24 11:01:07;;;;;;;5.30;4.30;;;17.40;99.90;;;;;;5051909;28;20424;-72
2023/09/24 11:03:36;;;;;;;4.77;4.10;;;17.50;99.90;;;;;;5051845;28;20541;-72
2023/09/24 11:06:07;;;;;;;5.33;3.60;;;17.60;99.90;;;;;;5052206;28;20777;-72
2023/09/24 11:08:35;;;;;;;4.70;3.63;;;17.60;99.90;;;;;;5053602;28;20426;-72
2023/09/24 11:11:05;;;;;;;4.60;3.37;;;17.60;99.90;;;;;;5051919;28;20504;-72
2023/09/24 11:13:33;;;;;;;4.70;3.23;;;17.60;99.90;;;;;;5054255;28;20489;-72
2023/09/24 11:16:01;;;;;;;5.00;3.40;;;17.70;99.90;;;;;;5056766;28;20440;-74
2023/09/24 11:18:32;;;;;;;5.30;3.90;;;17.70;99.90;;;;;;5053485;28;20495;-72
2023/09/24 11:21:00;;;;;;;5.77;3.70;;;17.80;99.90;;;;;;5052727;28;20836;-72
2023/09/24 11:23:36;;;;;;;4.83;3.80;;;17.80;99.90;;;;;;5054348;28;20816;-72
2023/09/24 11:26:09;;;;;;;4.40;3.63;;;17.80;99.90;;;;;;5056100;28;20415;-72
2023/09/24 11:28:38;;;;;;;5.17;3.97;;;17.80;99.90;;;;;;5055908;28;20778;-72
2023/09/24 11:31:06;;;;;;;6.20;3.10;;;17.90;99.90;;;;;;5057476;28;20499;-72
2023/09/24 11:33:36;;;;;;;4.43;2.87;;;17.90;99.90;;;;;;5055894;28;20477;-72
2023/09/24 11:36:16;;;;;;;3.73;2.43;;;18.00;99.90;;;;;;5056871;28;20928;-72
2023/09/24 11:38:44;;;;;;;4.10;2.47;;;18.10;99.90;;;;;;5057467;28;20468;-72
2023/09/24 11:44:25;;;;;;;4.23;2.40;;;18.20;99.90;;;;;;5055449;28;20473;-72
2023/09/24 11:46:53;;;;;;;3.87;2.30;;;18.20;99.90;;;;;;5055741;28;20796;-72
2023/09/24 11:49:29;;;;;;;5.50;2.53;;;18.20;99.90;;;;;;5056757;28;20854;-72
2023/09/24 11:51:57;;;;;;;3.00;2.00;;;18.30;99.90;;;;;;5055346;28;20520;-72
2023/09/24 11:54:31;;;;;;;6.30;3.17;;;18.30;99.90;;;;;;5056492;28;21058;-72
2023/09/24 11:57:06;;;;;;;4.83;2.00;;;18.40;99.90;;;;;;5055196;28;20419;-72
2023/09/24 11:59:37;;;;;;;3.30;2.03;;;18.40;99.90;;;;;;5055267;28;20412;-72
2023/09/24 12:02:09;;;;;;;2.40;2.03;;;18.50;99.90;;;;;;5055207;28;20504;-72
2023/09/24 12:04:37;;;;;;;4.47;2.40;;;18.50;99.90;;;;;;5055399;28;20471;-72
2023/09/24 12:07:06;;;;;;;4.33;3.23;;;18.60;99.90;;;;;;5056519;28;20430;-72
2023/09/24 12:09:35;;;;;;;4.00;2.87;;;18.60;99.90;;;;;;5056163;28;20415;-72
2023/09/24 12:12:05;;;;;;;4.87;2.90;;;18.70;99.90;;;;;;5056452;28;20412;-72
2023/09/24 12:14:33;;;;;;;5.03;1.80;;;18.70;99.90;;;;;;5054910;28;21004;-72
2023/09/24 12:17:01;;;;;;;4.20;2.30;;;18.80;99.90;;;;;;5054812;28;20446;-72
2023/09/24 12:19:31;;;;;;;5.60;2.00;;;18.80;99.90;;;;;;5056036;28;20449;-72
2023/09/24 12:22:03;;;;;;;5.50;2.03;;;18.80;99.90;;;;;;5056241;28;20441;-73
2023/09/24 12:24:31;;;;;;;2.60;1.70;;;18.90;99.90;;;;;;5056247;28;20533;-72
2023/09/24 12:26:59;;;;;;;7.60;5.60;;;18.90;99.90;;;;;;5054800;28;20442;-72
2023/09/24 12:29:32;;;;;;;2.90;1.57;;;19.00;99.90;;;;;;5054521;28;20461;-73
2023/09/24 12:32:00;;;;;;;2.47;1.50;;;19.00;99.90;;;;;;5055900;28;20418;-72
2023/09/24 12:34:28;;;;;;;3.87;1.90;;;19.00;99.90;;;;;;5055383;28;20516;-72
2023/09/24 12:36:59;;;;;;;3.13;2.00;;;19.10;99.90;;;;;;5056091;28;20422;-72
2023/09/24 12:39:27;;;;;;;3.00;1.80;;;19.10;99.90;;;;;;5055741;28;20469;-72
2023/09/24 12:41:55;;;;;;;2.87;1.67;;;19.20;99.90;;;;;;5058459;28;20430;-72
2023/09/24 12:44:23;;;;;;;3.03;1.70;;;19.20;99.90;;;;;;5055573;28;20906;-72
2023/09/24 12:46:55;;;;;;;4.10;2.10;;;19.20;99.90;;;;;;5056011;28;20513;-72
2023/09/24 12:49:23;;;;;;;3.50;2.20;;;19.20;99.90;;;;;;5056839;28;20430;-71
2023/09/24 12:51:52;;;;;;;2.40;1.70;;;19.30;99.90;;;;;;5055528;28;20430;-72
2023/09/24 12:54:20;;;;;;;3.30;2.33;;;19.30;99.90;;;;;;5055589;28;20911;-72
2023/09/24 12:56:48;;;;;;;3.57;1.87;;;19.30;99.90;;;;;;5055562;28;20434;-71